Time;durP1;ratioP1;P1;durP2;ratioP2;P2;SDS_P1;SDS_P2;PMS_P1;PMS_P2;Temp;Humidity;BMP_temperature;BMP_pressure;BME280_temperature;BME280_humidity;BME280_pressure;Samples;Min_cycle;Max_cycle;Signal;HPM_P1;HPM_P2
2022/02/26 00:00:48;;;;;;;5.65;3.50;;;11.00;99.90;;;;;;4968028;28;20413;-60
2022/02/26 00:03:17;;;;;;;5.82;3.85;;;11.00;99.90;;;;;;4962931;28;20125;-60
2022/02/26 00:05:47;;;;;;;5.18;3.60;;;11.00;99.90;;;;;;4964598;28;20065;-60
2022/02/26 00:08:15;;;;;;;8.32;4.35;;;11.00;99.90;;;;;;4963797;28;20043;-60
2022/02/26 00:10:45;;;;;;;9.38;4.40;;;10.90;99.90;;;;;;4948298;28;20058;-60
2022/02/26 00:13:12;;;;;;;7.20;4.28;;;10.90;99.90;;;;;;4965032;28;20454;-60
2022/02/26 00:15:40;;;;;;;14.68;4.82;;;11.00;99.90;;;;;;4963878;28;20047;-59
2022/02/26 00:18:07;;;;;;;11.18;6.13;;;10.90;99.90;;;;;;4972702;28;20039;-59
2022/02/26 00:20:35;;;;;;;12.48;5.97;;;10.90;99.90;;;;;;4957639;28;20035;-59
2022/02/26 00:23:03;;;;;;;10.32;6.90;;;10.90;99.90;;;;;;4975055;28;20105;-59
2022/02/26 00:25:31;;;;;;;7.80;5.25;;;10.80;99.90;;;;;;4975600;28;20101;-60
2022/02/26 00:27:59;;;;;;;5.78;4.18;;;10.80;99.90;;;;;;4971905;28;20118;-59
2022/02/26 00:30:26;;;;;;;7.75;4.60;;;10.80;99.90;;;;;;4985468;28;20133;-59
2022/02/26 00:32:54;;;;;;;8.13;4.10;;;10.80;99.90;;;;;;4973904;28;20077;-60
2022/02/26 00:35:22;;;;;;;7.88;4.85;;;10.80;99.90;;;;;;4974955;28;20125;-59
2022/02/26 00:37:51;;;;;;;5.63;3.92;;;10.80;99.90;;;;;;4973335;28;20082;-59
2022/02/26 00:40:19;;;;;;;6.55;4.22;;;10.90;99.90;;;;;;4975253;28;20485;-60
2022/02/26 00:42:47;;;;;;;5.90;3.33;;;10.90;99.90;;;;;;4975021;28;20488;-60
2022/02/26 00:45:15;;;;;;;7.85;3.53;;;10.90;99.90;;;;;;4969641;28;20442;-60
2022/02/26 00:47:42;;;;;;;5.95;3.85;;;10.90;99.90;;;;;;4953370;28;20062;-60
2022/02/26 00:50:13;;;;;;;6.07;3.53;;;11.00;99.90;;;;;;4973587;28;20055;-59
2022/02/26 00:52:41;;;;;;;8.68;4.60;;;11.00;99.90;;;;;;4973111;28;20043;-59
2022/02/26 00:55:09;;;;;;;4.78;4.15;;;11.00;99.90;;;;;;4973993;28;20043;-59
2022/02/26 00:57:36;;;;;;;5.75;3.45;;;11.00;99.90;;;;;;4975618;28;20034;-60
2022/02/26 01:00:08;;;;;;;5.25;3.33;;;11.10;99.90;;;;;;4973787;28;20155;-60
2022/02/26 01:02:36;;;;;;;4.53;3.17;;;11.10;99.90;;;;;;4958244;28;20139;-61
2022/02/26 01:05:04;;;;;;;6.13;2.55;;;11.20;99.90;;;;;;4974339;28;20050;-60
2022/02/26 01:07:32;;;;;;;7.20;2.88;;;11.20;99.90;;;;;;4975274;28;20053;-60
2022/02/26 01:10:03;;;;;;;4.60;3.17;;;11.20;99.90;;;;;;4973681;28;20588;-60
2022/02/26 01:12:32;;;;;;;5.10;2.75;;;11.30;99.90;;;;;;4973048;28;20137;-61
2022/02/26 01:15:02;;;;;;;4.05;2.75;;;11.30;99.90;;;;;;4973102;28;20050;-61
2022/02/26 01:17:30;;;;;;;6.95;3.67;;;11.40;99.90;;;;;;4974502;28;20047;-60
2022/02/26 01:19:58;;;;;;;4.68;2.60;;;11.40;99.90;;;;;;4974133;28;20105;-60
2022/02/26 01:22:27;;;;;;;4.97;2.88;;;11.50;99.90;;;;;;4973394;28;20490;-60
2022/02/26 01:24:54;;;;;;;5.47;3.60;;;11.50;99.90;;;;;;4970798;28;20512;-60
2022/02/26 01:27:22;;;;;;;7.50;3.30;;;11.50;99.90;;;;;;4974565;28;20047;-60
2022/02/26 01:29:49;;;;;;;5.50;2.78;;;11.50;99.90;;;;;;4973429;28;20055;-60
2022/02/26 01:32:17;;;;;;;5.60;3.22;;;11.50;99.80;;;;;;4973679;28;20121;-61
2022/02/26 01:34:44;;;;;;;5.88;3.30;;;11.50;99.90;;;;;;4971022;28;20592;-59
2022/02/26 01:37:12;;;;;;;3.70;3.28;;;11.40;99.90;;;;;;4970365;28;20099;-59
2022/02/26 01:39:39;;;;;;;8.63;3.60;;;11.50;99.90;;;;;;4974337;28;20043;-59
2022/02/26 01:42:07;;;;;;;7.15;3.30;;;11.50;99.90;;;;;;4970418;28;20622;-59
2022/02/26 01:44:36;;;;;;;5.38;3.53;;;11.50;99.90;;;;;;4969895;28;20065;-60
2022/02/26 01:47:06;;;;;;;6.95;2.97;;;11.50;99.90;;;;;;4976502;28;20081;-59
2022/02/26 01:49:33;;;;;;;5.30;3.10;;;11.50;99.90;;;;;;4976100;28;20079;-60
2022/02/26 01:52:01;;;;;;;7.38;3.50;;;11.50;99.90;;;;;;4976208;28;20413;-60
2022/02/26 01:54:30;;;;;;;7.35;4.00;;;11.50;99.90;;;;;;4976081;28;20042;-60
2022/02/26 01:56:58;;;;;;;8.20;3.90;;;11.50;99.90;;;;;;4976166;28;20043;-59
2022/02/26 01:59:26;;;;;;;5.88;3.25;;;11.50;99.90;;;;;;4974948;28;20049;-59
2022/02/26 02:01:53;;;;;;;5.93;3.35;;;11.50;99.90;;;;;;4975596;28;20121;-59
2022/02/26 02:04:21;;;;;;;7.15;3.80;;;11.60;99.90;;;;;;4959174;28;20117;-59
2022/02/26 02:06:48;;;;;;;6.82;3.22;;;11.50;99.90;;;;;;4975872;28;20046;-60
2022/02/26 02:09:16;;;;;;;9.23;3.50;;;11.60;99.90;;;;;;4974531;28;20050;-60
2022/02/26 02:11:44;;;;;;;4.70;3.47;;;11.60;99.90;;;;;;4974855;28;20057;-60
2022/02/26 02:14:11;;;;;;;5.03;3.47;;;11.60;99.90;;;;;;4974592;28;20113;-59
2022/02/26 02:16:39;;;;;;;7.13;3.30;;;11.60;99.90;;;;;;4974661;28;20054;-59
2022/02/26 02:19:08;;;;;;;8.85;4.28;;;11.60;99.90;;;;;;4974617;28;20042;-60
2022/02/26 02:21:37;;;;;;;6.18;3.88;;;11.60;99.90;;;;;;4975609;28;20042;-59
2022/02/26 02:24:06;;;;;;;5.75;2.80;;;11.60;99.90;;;;;;4975568;28;20043;-60
2022/02/26 02:26:35;;;;;;;5.00;3.58;;;11.60;99.90;;;;;;4974522;28;20078;-59
2022/02/26 02:29:05;;;;;;;4.28;2.50;;;11.60;99.90;;;;;;4974533;28;20046;-59
2022/02/26 02:31:33;;;;;;;4.88;3.28;;;11.60;99.90;;;;;;4975506;28;20077;-59
2022/02/26 02:34:00;;;;;;;8.77;3.08;;;11.60;99.90;;;;;;4975416;28;20056;-59
2022/02/26 02:36:28;;;;;;;4.97;2.33;;;11.60;99.90;;;;;;4974187;28;20047;-59
2022/02/26 02:38:56;;;;;;;4.70;2.90;;;11.60;99.90;;;;;;4975265;28;20070;-59
2022/02/26 02:41:26;;;;;;;9.90;3.35;;;11.60;99.90;;;;;;4974323;28;20479;-59
2022/02/26 02:43:53;;;;;;;7.75;2.72;;;11.60;99.90;;;;;;4975722;28;20421;-59
2022/02/26 02:46:21;;;;;;;7.78;2.75;;;11.60;99.90;;;;;;4975283;28;20062;-59
2022/02/26 02:48:48;;;;;;;6.05;2.85;;;11.50;99.90;;;;;;4958123;28;20042;-59
2022/02/26 02:51:16;;;;;;;6.53;2.40;;;11.50;99.90;;;;;;4975117;28;20129;-59
2022/02/26 02:53:43;;;;;;;7.90;3.38;;;11.50;99.90;;;;;;4958236;28;20034;-59
2022/02/26 02:56:11;;;;;;;6.25;2.85;;;11.50;99.90;;;;;;4975229;28;20046;-59
2022/02/26 02:58:38;;;;;;;5.68;3.55;;;11.50;99.90;;;;;;4973887;28;20045;-59
2022/02/26 03:01:06;;;;;;;7.05;3.17;;;11.50;99.90;;;;;;4973884;28;20038;-59
2022/02/26 03:03:34;;;;;;;7.32;4.70;;;11.50;99.90;;;;;;4975112;28;20489;-59
2022/02/26 03:06:02;;;;;;;7.35;4.10;;;11.40;99.90;;;;;;4974946;28;20497;-59
2022/02/26 03:08:29;;;;;;;6.88;4.43;;;11.40;99.90;;;;;;4974875;28;20047;-59
2022/02/26 03:10:57;;;;;;;4.68;3.40;;;11.40;99.90;;;;;;4975060;28;20043;-59
2022/02/26 03:13:27;;;;;;;5.18;2.53;;;11.40;99.90;;;;;;4972614;28;20046;-60
2022/02/26 03:15:57;;;;;;;5.15;2.40;;;11.30;99.90;;;;;;4974873;28;20047;-60
2022/02/26 03:18:25;;;;;;;3.50;2.50;;;11.30;99.90;;;;;;4974767;28;20066;-60
2022/02/26 03:20:53;;;;;;;5.25;2.65;;;11.30;99.90;;;;;;4974700;28;20055;-59
2022/02/26 03:23:21;;;;;;;6.80;4.03;;;11.30;99.90;;;;;;4974884;28;20045;-60
2022/02/26 03:25:48;;;;;;;8.15;3.80;;;11.30;99.90;;;;;;4974729;28;20141;-60
2022/02/26 03:28:20;;;;;;;7.65;4.28;;;11.30;99.90;;;;;;4974679;28;20070;-60
2022/02/26 03:30:49;;;;;;;7.50;2.70;;;11.30;99.90;;;;;;4957817;28;20532;-60
2022/02/26 03:33:17;;;;;;;4.47;2.45;;;11.30;99.90;;;;;;4973456;28;20047;-59
2022/02/26 03:35:44;;;;;;;7.90;3.85;;;11.20;99.90;;;;;;4974540;28;20050;-60
2022/02/26 03:38:12;;;;;;;9.02;4.32;;;11.20;99.90;;;;;;4974502;28;20049;-60
2022/02/26 03:40:40;;;;;;;7.72;3.90;;;11.20;99.90;;;;;;4974590;28;20046;-59
2022/02/26 03:43:08;;;;;;;5.80;3.05;;;11.10;99.90;;;;;;4957619;28;20114;-59
2022/02/26 03:45:37;;;;;;;5.55;3.83;;;11.10;99.90;;;;;;4957720;28;20043;-59
2022/02/26 03:48:05;;;;;;;6.40;3.15;;;11.20;99.90;;;;;;4973404;28;20363;-59
2022/02/26 03:50:32;;;;;;;7.35;4.03;;;11.20;99.90;;;;;;4974435;28;20042;-59
2022/02/26 03:53:00;;;;;;;6.68;2.90;;;11.20;99.90;;;;;;4974396;28;20386;-59
2022/02/26 03:55:27;;;;;;;8.00;3.00;;;11.20;99.90;;;;;;4957399;28;20049;-60
2022/02/26 03:57:55;;;;;;;6.13;3.83;;;11.20;99.90;;;;;;4974458;28;20049;-60
2022/02/26 04:00:22;;;;;;;12.85;4.75;;;11.20;99.90;;;;;;4974004;28;20054;-60
2022/02/26 04:02:50;;;;;;;8.77;4.53;;;11.20;99.90;;;;;;4974507;28;20078;-60
2022/02/26 04:05:17;;;;;;;6.80;4.05;;;11.20;99.90;;;;;;4973516;28;20367;-60
2022/02/26 04:07:45;;;;;;;5.68;3.63;;;11.20;99.90;;;;;;4974399;28;20125;-59
2022/02/26 04:10:12;;;;;;;8.27;3.67;;;11.20;99.90;;;;;;4973245;28;20042;-60
2022/02/26 04:12:40;;;;;;;6.03;3.60;;;11.20;99.90;;;;;;4973164;28;20034;-59
2022/02/26 04:15:08;;;;;;;9.05;5.38;;;11.10;99.90;;;;;;4973064;28;20139;-60
2022/02/26 04:17:36;;;;;;;8.27;5.00;;;11.10;99.90;;;;;;4974215;28;20066;-60
2022/02/26 04:20:04;;;;;;;9.38;5.65;;;11.10;99.90;;;;;;4973508;28;20047;-59
2022/02/26 04:22:32;;;;;;;11.88;5.43;;;11.10;99.90;;;;;;4973015;28;20137;-60
2022/02/26 04:25:01;;;;;;;9.52;5.95;;;11.10;99.90;;;;;;4976994;28;20047;-59
2022/02/26 04:27:28;;;;;;;9.45;5.78;;;11.10;99.90;;;;;;4977813;28;20054;-60
2022/02/26 04:29:56;;;;;;;10.02;6.47;;;11.10;99.90;;;;;;4977674;28;20043;-60
2022/02/26 04:32:40;;;;;;;12.57;5.25;;;11.00;99.90;;;;;;4978871;28;20409;-59
2022/02/26 04:35:10;;;;;;;8.18;3.63;;;11.10;99.90;;;;;;4976636;28;20043;-59
2022/02/26 04:37:38;;;;;;;11.07;4.30;;;11.00;99.90;;;;;;4976605;28;20130;-59
2022/02/26 04:40:07;;;;;;;8.10;4.43;;;11.00;99.90;;;;;;4976634;28;20079;-60
2022/02/26 04:42:34;;;;;;;7.07;3.85;;;11.00;99.90;;;;;;4976080;28;20134;-60
2022/02/26 04:45:02;;;;;;;7.75;3.95;;;10.90;99.90;;;;;;4976320;28;20043;-60
2022/02/26 04:47:29;;;;;;;9.13;3.65;;;10.90;99.90;;;;;;4977366;28;20441;-60
2022/02/26 04:49:57;;;;;;;4.68;3.35;;;10.90;99.90;;;;;;4976428;28;20070;-59
2022/02/26 04:52:24;;;;;;;4.82;2.90;;;10.80;99.90;;;;;;4976406;28;20109;-60
2022/02/26 04:54:52;;;;;;;6.05;4.22;;;10.80;99.90;;;;;;4977300;28;20054;-60
2022/02/26 04:57:19;;;;;;;6.93;3.15;;;10.80;99.90;;;;;;4976102;28;20470;-60
2022/02/26 04:59:47;;;;;;;4.57;2.83;;;10.80;99.90;;;;;;4976149;28;20126;-60
2022/02/26 05:02:15;;;;;;;11.55;3.90;;;10.80;99.90;;;;;;4976070;28;20066;-60
2022/02/26 05:04:42;;;;;;;5.68;3.40;;;10.80;99.90;;;;;;4975700;28;20461;-60
2022/02/26 05:07:12;;;;;;;8.07;3.35;;;10.80;99.90;;;;;;4977054;28;20153;-60
2022/02/26 05:09:40;;;;;;;8.07;3.53;;;10.80;99.90;;;;;;4976113;28;20039;-60
2022/02/26 05:12:08;;;;;;;8.82;5.53;;;10.80;99.90;;;;;;4976012;28;20154;-60
2022/02/26 05:14:36;;;;;;;19.60;13.07;;;10.80;99.90;;;;;;4976813;28;20059;-60
2022/02/26 05:17:04;;;;;;;14.27;10.07;;;10.80;99.90;;;;;;4977032;28;20118;-60
2022/02/26 05:19:32;;;;;;;9.20;6.10;;;10.90;99.90;;;;;;4976906;28;20141;-60
2022/02/26 05:21:59;;;;;;;7.05;4.28;;;10.90;99.90;;;;;;4975337;28;20043;-60
2022/02/26 05:24:27;;;;;;;6.63;3.42;;;10.80;99.90;;;;;;4975567;28;20054;-60
2022/02/26 05:26:54;;;;;;;6.90;3.10;;;10.80;99.90;;;;;;4975127;28;20098;-60
2022/02/26 05:29:22;;;;;;;9.27;3.35;;;10.80;99.90;;;;;;4975215;28;20062;-61
2022/02/26 05:31:50;;;;;;;7.43;3.97;;;10.70;99.90;;;;;;4976828;28;20047;-60
2022/02/26 05:34:17;;;;;;;4.78;3.03;;;10.50;99.90;;;;;;4975560;28;20132;-60
2022/02/26 05:36:45;;;;;;;7.70;3.03;;;10.40;99.90;;;;;;4974632;28;20379;-60
2022/02/26 05:39:13;;;;;;;4.97;2.50;;;10.30;99.90;;;;;;4975692;28;20141;-60
2022/02/26 05:41:40;;;;;;;6.35;2.83;;;10.30;99.90;;;;;;4976439;28;20070;-60
2022/02/26 05:44:10;;;;;;;8.20;4.45;;;10.10;99.90;;;;;;4976212;28;20073;-60
2022/02/26 05:46:38;;;;;;;5.45;3.33;;;10.10;99.90;;;;;;4959359;28;20055;-59
2022/02/26 05:49:05;;;;;;;6.00;3.38;;;10.00;99.90;;;;;;4976378;28;20090;-60
2022/02/26 05:51:33;;;;;;;7.78;3.35;;;10.00;99.90;;;;;;4976173;28;20137;-60
2022/02/26 05:54:00;;;;;;;8.50;4.45;;;10.10;99.90;;;;;;4943560;28;20472;-60
2022/02/26 05:56:28;;;;;;;4.75;3.38;;;10.10;99.90;;;;;;4975431;28;20366;-59
2022/02/26 05:58:55;;;;;;;6.88;3.25;;;10.10;99.90;;;;;;4976451;28;20133;-59
2022/02/26 06:01:23;;;;;;;7.97;3.88;;;10.20;99.90;;;;;;4975006;28;20446;-60
2022/02/26 06:03:50;;;;;;;6.05;3.75;;;10.30;99.90;;;;;;4974985;28;20047;-60
2022/02/26 06:06:18;;;;;;;8.25;3.80;;;10.40;99.90;;;;;;4975019;28;20231;-60
2022/02/26 06:08:46;;;;;;;10.00;4.82;;;10.40;99.90;;;;;;4974932;28;20047;-60
2022/02/26 06:11:14;;;;;;;7.13;4.22;;;10.50;99.90;;;;;;4975701;28;20406;-59
2022/02/26 06:13:42;;;;;;;10.10;6.03;;;10.60;99.90;;;;;;4942769;28;20169;-60
2022/02/26 06:16:10;;;;;;;9.25;6.75;;;10.70;99.90;;;;;;4975954;28;20055;-59
2022/02/26 06:18:37;;;;;;;8.63;5.28;;;10.80;99.90;;;;;;4975590;28;20486;-60
2022/02/26 06:21:05;;;;;;;10.13;5.65;;;10.90;99.90;;;;;;4976002;28;20038;-60
2022/02/26 06:23:32;;;;;;;9.80;4.63;;;11.00;99.90;;;;;;4975929;28;20126;-60
2022/02/26 06:26:00;;;;;;;6.82;4.28;;;11.20;99.90;;;;;;4974813;28;20077;-60
2022/02/26 06:28:27;;;;;;;8.38;5.00;;;11.30;99.90;;;;;;4974462;28;20053;-60
2022/02/26 06:30:55;;;;;;;6.35;3.90;;;11.40;99.90;;;;;;4974599;28;20145;-59
2022/02/26 06:33:24;;;;;;;5.32;3.72;;;11.60;99.90;;;;;;4974256;28;20085;-60
2022/02/26 06:35:52;;;;;;;6.60;3.67;;;11.90;99.90;;;;;;4975489;28;20482;-60
2022/02/26 06:38:20;;;;;;;8.10;4.03;;;12.30;99.90;;;;;;4975992;28;20106;-60
2022/02/26 06:40:47;;;;;;;7.80;4.03;;;12.60;99.90;;;;;;4975596;28;20137;-60
2022/02/26 06:43:15;;;;;;;12.25;7.65;;;12.80;99.90;;;;;;4974281;28;20051;-60
2022/02/26 06:45:42;;;;;;;15.75;9.43;;;13.00;99.90;;;;;;4974105;28;20485;-60
2022/02/26 06:48:10;;;;;;;9.90;5.22;;;13.20;99.90;;;;;;4975227;28;20047;-60
2022/02/26 06:50:37;;;;;;;7.50;4.57;;;13.50;99.90;;;;;;4975424;28;20498;-60
2022/02/26 06:53:05;;;;;;;7.97;4.45;;;13.80;99.90;;;;;;4974327;28;20046;-60
2022/02/26 06:55:32;;;;;;;5.88;4.18;;;14.30;99.90;;;;;;4975257;28;20074;-60
2022/02/26 06:58:00;;;;;;;9.30;5.15;;;14.70;99.20;;;;;;4975387;28;20053;-60
2022/02/26 07:00:30;;;;;;;5.32;3.85;;;14.90;99.00;;;;;;4975199;28;20046;-60
2022/02/26 07:02:58;;;;;;;7.70;4.53;;;14.70;98.90;;;;;;4975428;28;20494;-60
2022/02/26 07:05:26;;;;;;;5.00;3.15;;;14.60;98.80;;;;;;4974230;28;20371;-61
2022/02/26 07:07:53;;;;;;;5.63;3.13;;;14.50;99.20;;;;;;4974109;28;20406;-60
2022/02/26 07:10:21;;;;;;;7.78;4.00;;;14.70;99.10;;;;;;4974963;28;20042;-60
2022/02/26 07:12:49;;;;;;;9.00;3.53;;;14.60;98.70;;;;;;4973888;28;20053;-60
2022/02/26 07:15:16;;;;;;;6.22;3.03;;;14.60;99.00;;;;;;4973461;28;20062;-60
2022/02/26 07:17:44;;;;;;;16.15;7.57;;;14.60;99.10;;;;;;4973622;28;20046;-60
2022/02/26 07:20:12;;;;;;;17.70;8.73;;;14.60;99.00;;;;;;4973694;28;20474;-60
2022/02/26 07:22:40;;;;;;;8.02;5.35;;;14.60;98.80;;;;;;4974905;28;20050;-60
2022/02/26 07:25:08;;;;;;;7.75;4.57;;;14.60;98.90;;;;;;4973897;28;20049;-60
2022/02/26 07:27:36;;;;;;;12.60;7.25;;;14.30;99.40;;;;;;4957760;28;20402;-60
2022/02/26 07:30:07;;;;;;;12.40;6.63;;;14.50;99.40;;;;;;4973452;28;20038;-60
2022/02/26 07:32:35;;;;;;;8.23;4.53;;;14.50;99.70;;;;;;4972205;28;20046;-61
2022/02/26 07:35:05;;;;;;;9.52;5.40;;;14.40;99.70;;;;;;4973228;28;20043;-60
2022/02/26 07:37:32;;;;;;;7.88;4.55;;;14.30;99.90;;;;;;4973066;28;20058;-60
2022/02/26 07:40:00;;;;;;;10.23;3.55;;;14.40;99.90;;;;;;4971616;28;20050;-60
2022/02/26 07:42:28;;;;;;;5.45;3.20;;;14.50;99.90;;;;;;4967665;28;20047;-62
2022/02/26 07:44:56;;;;;;;5.90;3.70;;;14.50;99.80;;;;;;4971086;28;20047;-61
2022/02/26 07:47:25;;;;;;;6.50;3.97;;;14.60;99.90;;;;;;4970960;28;20130;-61
2022/02/26 07:49:52;;;;;;;7.95;5.07;;;14.70;99.90;;;;;;4973172;28;20070;-60
2022/02/26 07:52:27;;;;;;;9.20;5.05;;;14.90;99.70;;;;;;4956719;28;20047;-61
2022/02/26 07:54:55;;;;;;;9.35;4.90;;;15.00;99.50;;;;;;4968307;28;20040;-60
2022/02/26 07:57:25;;;;;;;5.65;3.83;;;14.80;99.00;;;;;;4981329;28;20117;-60
2022/02/26 07:59:53;;;;;;;9.25;4.13;;;14.70;99.50;;;;;;4974433;28;20102;-59
2022/02/26 08:02:20;;;;;;;6.50;4.95;;;14.60;99.00;;;;;;4975574;28;20524;-59
2022/02/26 08:04:49;;;;;;;8.15;3.97;;;14.60;98.90;;;;;;4976972;28;20043;-60
2022/02/26 08:07:18;;;;;;;7.35;4.68;;;14.50;98.90;;;;;;4974588;28;20498;-60
2022/02/26 08:09:45;;;;;;;7.72;4.07;;;14.50;98.90;;;;;;4976059;28;20053;-60
2022/02/26 08:12:14;;;;;;;6.30;3.53;;;14.60;98.70;;;;;;4975954;28;20080;-60
2022/02/26 08:14:42;;;;;;;3.97;3.15;;;14.70;98.10;;;;;;4958908;28;20837;-60
2022/02/26 08:17:09;;;;;;;8.65;3.55;;;14.70;98.10;;;;;;4989550;28;20117;-59
2022/02/26 08:19:38;;;;;;;8.65;3.92;;;14.90;98.30;;;;;;4975346;28;20042;-59
2022/02/26 08:22:06;;;;;;;8.13;3.58;;;14.90;98.10;;;;;;4974932;28;20039;-60
2022/02/26 08:24:35;;;;;;;4.97;2.58;;;14.80;98.30;;;;;;4975237;28;20050;-59
2022/02/26 08:27:04;;;;;;;7.38;4.28;;;14.50;98.50;;;;;;4973891;28;20166;-59
2022/02/26 08:29:32;;;;;;;6.53;3.83;;;14.30;99.20;;;;;;4975807;28;20393;-59
2022/02/26 08:32:00;;;;;;;5.68;3.67;;;14.30;99.50;;;;;;4974182;28;20466;-60
2022/02/26 08:34:27;;;;;;;5.85;3.85;;;14.40;99.90;;;;;;4975428;28;20051;-60
2022/02/26 08:36:55;;;;;;;8.13;4.95;;;14.40;99.70;;;;;;4977313;28;20560;-60
2022/02/26 08:39:24;;;;;;;7.53;3.47;;;14.50;99.80;;;;;;4977821;28;20049;-60
2022/02/26 08:41:52;;;;;;;4.75;2.47;;;14.50;98.60;;;;;;4976698;28;20078;-59
2022/02/26 08:44:20;;;;;;;4.63;3.35;;;14.80;98.20;;;;;;4977560;28;20039;-59
2022/02/26 08:46:47;;;;;;;5.07;2.58;;;15.00;98.70;;;;;;4977579;28;20043;-59
2022/02/26 08:49:15;;;;;;;3.58;2.10;;;15.10;96.20;;;;;;4977630;28;20043;-59
2022/02/26 08:51:43;;;;;;;4.03;2.13;;;15.20;96.30;;;;;;4975993;28;20088;-59
2022/02/26 08:54:10;;;;;;;3.00;2.30;;;15.50;96.80;;;;;;4976435;28;20043;-59
2022/02/26 08:56:38;;;;;;;2.80;2.03;;;15.60;95.90;;;;;;4977459;28;20047;-59
2022/02/26 08:59:06;;;;;;;4.93;2.70;;;15.30;93.90;;;;;;4976287;28;20441;-59
2022/02/26 09:01:33;;;;;;;4.18;3.15;;;15.40;94.30;;;;;;4977411;28;20078;-59
2022/02/26 09:04:04;;;;;;;6.28;2.72;;;15.50;94.90;;;;;;4975983;28;20081;-59
2022/02/26 09:06:32;;;;;;;4.70;2.90;;;15.30;96.50;;;;;;4976000;28;20039;-59
2022/02/26 09:09:01;;;;;;;5.00;2.92;;;15.20;97.00;;;;;;4976068;28;20490;-58
2022/02/26 09:11:28;;;;;;;5.80;2.42;;;15.30;96.90;;;;;;4976082;28;20075;-58
2022/02/26 09:13:56;;;;;;;5.00;3.42;;;15.10;96.30;;;;;;4977075;28;20073;-59
2022/02/26 09:16:24;;;;;;;5.78;2.83;;;15.20;96.20;;;;;;4975700;28;20046;-60
2022/02/26 09:18:51;;;;;;;6.47;3.33;;;15.10;95.90;;;;;;4975774;28;20050;-60
2022/02/26 09:21:20;;;;;;;5.03;2.63;;;15.10;96.00;;;;;;4976001;28;20053;-59
2022/02/26 09:23:48;;;;;;;5.53;2.17;;;15.20;95.30;;;;;;4976942;28;20053;-59
2022/02/26 09:26:15;;;;;;;8.07;2.85;;;15.30;94.20;;;;;;4976869;28;20472;-59
2022/02/26 09:28:43;;;;;;;2.97;1.92;;;15.40;93.90;;;;;;4976689;28;20054;-59
2022/02/26 09:31:12;;;;;;;3.45;1.48;;;15.60;93.60;;;;;;4975495;28;20050;-60
2022/02/26 09:33:40;;;;;;;3.20;1.65;;;15.60;92.80;;;;;;4976474;28;20042;-59
2022/02/26 09:36:09;;;;;;;3.53;1.40;;;15.50;92.60;;;;;;4975686;28;20046;-59
2022/02/26 09:38:40;;;;;;;4.03;2.33;;;15.60;92.70;;;;;;4975602;28;20481;-59
2022/02/26 09:41:09;;;;;;;3.78;1.98;;;15.60;92.80;;;;;;4976696;28;20042;-59
2022/02/26 09:43:37;;;;;;;5.90;2.15;;;15.70;92.40;;;;;;4975323;28;20043;-59
2022/02/26 09:46:06;;;;;;;9.45;2.08;;;15.80;92.50;;;;;;4976409;28;20043;-59
2022/02/26 09:48:34;;;;;;;3.72;1.50;;;16.30;92.80;;;;;;4976546;28;20047;-59
2022/02/26 09:51:03;;;;;;;2.75;1.60;;;16.40;92.10;;;;;;4976488;28;20485;-59
2022/02/26 09:53:31;;;;;;;2.97;2.50;;;16.30;91.80;;;;;;4976254;28;20058;-59
2022/02/26 09:55:59;;;;;;;8.63;2.03;;;16.10;92.00;;;;;;4976361;28;20034;-59
2022/02/26 09:58:29;;;;;;;4.88;1.63;;;16.00;91.30;;;;;;4976381;28;20089;-59
2022/02/26 10:00:57;;;;;;;4.10;1.50;;;16.10;92.00;;;;;;4976283;28;20039;-59
2022/02/26 10:03:33;;;;;;;6.18;2.05;;;15.80;91.90;;;;;;4975009;28;20050;-59
2022/02/26 10:06:22;;;;;;;3.35;1.90;;;15.60;92.60;;;;;;4975247;28;20105;-59
2022/02/26 10:08:55;;;;;;;14.65;1.92;;;15.50;93.10;;;;;;4976166;28;20389;-59
2022/02/26 10:11:26;;;;;;;3.25;1.77;;;15.50;93.30;;;;;;4975932;28;20494;-59
2022/02/26 10:14:20;;;;;;;2.97;1.63;;;15.60;93.00;;;;;;4974645;28;20097;-59
2022/02/26 10:16:51;;;;;;;5.40;1.80;;;15.70;92.90;;;;;;4975904;28;20034;-59
2022/02/26 10:19:31;;;;;;;6.72;2.28;;;15.70;93.20;;;;;;4975821;28;20043;-60
2022/02/26 10:22:04;;;;;;;3.85;1.52;;;15.80;93.50;;;;;;4974808;28;20094;-60
2022/02/26 10:24:33;;;;;;;2.65;1.77;;;15.70;92.70;;;;;;4975904;28;20043;-60
2022/02/26 10:27:05;;;;;;;5.50;1.73;;;15.70;93.30;;;;;;4975770;28;20058;-60
2022/02/26 10:29:39;;;;;;;2.80;1.70;;;15.60;93.40;;;;;;4974479;28;20066;-60
2022/02/26 10:32:08;;;;;;;2.65;1.65;;;15.50;92.70;;;;;;4974494;28;20055;-60
2022/02/26 10:34:42;;;;;;;2.72;1.50;;;15.40;93.60;;;;;;4975780;28;20074;-60
2022/02/26 10:37:17;;;;;;;3.75;1.95;;;15.40;93.20;;;;;;4974446;28;20046;-60
2022/02/26 10:39:51;;;;;;;3.22;1.67;;;15.60;93.90;;;;;;4975568;28;20042;-60
2022/02/26 10:42:28;;;;;;;3.00;1.63;;;15.60;93.50;;;;;;4975517;28;20038;-60
2022/02/26 10:45:11;;;;;;;6.53;2.53;;;15.70;93.60;;;;;;4975404;28;20433;-60
2022/02/26 10:47:41;;;;;;;2.72;1.35;;;16.00;93.70;;;;;;4974369;28;20047;-60
2022/02/26 10:50:16;;;;;;;3.55;1.88;;;15.80;92.40;;;;;;4975411;28;20043;-60
2022/02/26 10:52:55;;;;;;;4.78;1.83;;;15.70;92.50;;;;;;4974095;28;20065;-60
2022/02/26 10:55:43;;;;;;;3.85;2.22;;;15.70;93.30;;;;;;4975163;28;20051;-60
2022/02/26 10:58:25;;;;;;;3.88;1.67;;;15.70;93.50;;;;;;4974030;28;20065;-60
2022/02/26 11:00:59;;;;;;;3.33;1.45;;;15.80;92.90;;;;;;4974099;28;20057;-60
2022/02/26 11:03:27;;;;;;;2.22;1.40;;;16.00;91.80;;;;;;4973931;28;20039;-60
2022/02/26 11:05:55;;;;;;;3.17;1.90;;;15.90;91.20;;;;;;4974140;28;20054;-60
2022/02/26 11:08:23;;;;;;;3.00;1.30;;;15.50;91.20;;;;;;4975267;28;20043;-61
2022/02/26 11:10:52;;;;;;;2.80;1.65;;;15.50;92.10;;;;;;4975137;28;20038;-59
2022/02/26 11:13:22;;;;;;;5.00;1.83;;;15.50;91.90;;;;;;4973757;28;20086;-60
2022/02/26 11:15:55;;;;;;;3.90;1.85;;;15.70;92.10;;;;;;4974048;28;20047;-60
2022/02/26 11:18:30;;;;;;;4.18;1.88;;;15.90;91.10;;;;;;4974745;28;20464;-60
2022/02/26 11:20:59;;;;;;;4.13;1.35;;;16.10;91.70;;;;;;4974769;28;20077;-59
2022/02/26 11:23:29;;;;;;;2.88;1.40;;;16.40;91.90;;;;;;4973706;28;20409;-60
2022/02/26 11:25:56;;;;;;;1.55;1.08;;;16.40;92.10;;;;;;4974138;28;20398;-60
2022/02/26 11:28:24;;;;;;;4.70;2.53;;;16.20;91.40;;;;;;4974803;28;20509;-60
2022/02/26 11:30:57;;;;;;;2.33;1.50;;;15.90;91.40;;;;;;4973561;28;20066;-60
2022/02/26 11:33:26;;;;;;;6.30;1.83;;;15.80;91.40;;;;;;4974300;28;20110;-60
2022/02/26 11:35:56;;;;;;;7.43;2.03;;;16.00;91.60;;;;;;4974691;28;20050;-60
2022/02/26 11:38:26;;;;;;;5.38;2.33;;;16.10;91.70;;;;;;4974800;28;20046;-60
2022/02/26 11:41:19;;;;;;;3.58;1.40;;;16.20;91.60;;;;;;4973762;28;20101;-59
2022/02/26 11:43:57;;;;;;;2.05;1.20;;;16.10;91.30;;;;;;4973569;28;20043;-60
2022/02/26 11:46:33;;;;;;;3.72;1.60;;;16.20;90.70;;;;;;4973831;28;20051;-60
2022/02/26 11:49:13;;;;;;;2.97;1.48;;;16.20;90.30;;;;;;4974875;28;20047;-59
2022/02/26 11:51:44;;;;;;;5.32;1.60;;;16.20;90.00;;;;;;4973445;28;20067;-60
2022/02/26 11:54:17;;;;;;;3.70;1.33;;;16.20;90.50;;;;;;4973476;28;20077;-60
2022/02/26 11:57:09;;;;;;;2.38;1.60;;;16.10;90.90;;;;;;4973476;28;20066;-60
2022/02/26 11:59:38;;;;;;;6.03;2.42;;;16.20;91.00;;;;;;4972809;28;20046;-60
2022/02/26 12:02:09;;;;;;;4.18;2.00;;;16.20;90.20;;;;;;4974509;28;20070;-60
2022/02/26 12:04:56;;;;;;;3.30;2.03;;;16.10;90.00;;;;;;4973241;28;20065;-60
2022/02/26 12:07:41;;;;;;;2.85;2.20;;;16.20;88.30;;;;;;4973423;28;20047;-60
2022/02/26 12:10:12;;;;;;;7.50;1.90;;;16.10;90.00;;;;;;4973461;28;20043;-60
2022/02/26 12:12:47;;;;;;;3.63;2.13;;;15.90;90.90;;;;;;4974467;28;20049;-59
2022/02/26 12:15:14;;;;;;;3.70;2.05;;;15.70;91.30;;;;;;4973429;28;20506;-60
2022/02/26 12:17:47;;;;;;;7.22;2.20;;;15.60;91.70;;;;;;4974513;28;20053;-60
2022/02/26 12:20:18;;;;;;;3.42;2.30;;;15.80;91.60;;;;;;4973309;28;20039;-60
2022/02/26 12:22:48;;;;;;;4.45;1.60;;;15.90;90.90;;;;;;4973090;28;20094;-59
2022/02/26 12:25:17;;;;;;;2.28;1.42;;;16.00;90.30;;;;;;4973630;28;20486;-60
2022/02/26 12:27:58;;;;;;;9.52;2.42;;;16.10;90.50;;;;;;4974218;28;20070;-60
2022/02/26 12:30:31;;;;;;;3.00;1.60;;;16.10;90.90;;;;;;4957420;28;20042;-60
2022/02/26 12:33:02;;;;;;;3.20;1.45;;;16.00;91.10;;;;;;4974421;28;20106;-60
2022/02/26 12:35:36;;;;;;;5.30;1.88;;;16.00;91.40;;;;;;4973033;28;20043;-60
2022/02/26 12:38:20;;;;;;;4.85;2.13;;;16.00;92.10;;;;;;4973036;28;20353;-60
2022/02/26 12:40:48;;;;;;;2.55;1.48;;;15.90;92.70;;;;;;4974541;28;20053;-60
2022/02/26 12:43:16;;;;;;;4.15;1.70;;;15.70;93.20;;;;;;4956997;28;20494;-59
2022/02/26 12:45:46;;;;;;;5.50;2.30;;;15.50;93.20;;;;;;4974610;28;20409;-60
2022/02/26 12:48:13;;;;;;;7.18;3.25;;;15.60;93.70;;;;;;4976352;28;20528;-60
2022/02/26 12:50:42;;;;;;;3.42;2.00;;;15.50;94.00;;;;;;4976329;28;20070;-59
2022/02/26 12:53:10;;;;;;;4.18;1.85;;;15.60;93.90;;;;;;4978119;28;20065;-60
2022/02/26 12:55:38;;;;;;;3.03;1.40;;;15.70;93.10;;;;;;4976467;28;20129;-59